sensor_id;sensor_type;location;lat;lon;timestamp;temperature;humidity
20858;DHT22;10589;53.636;10.012;2022-10-17T03:47:24;12.60;99.90
20858;DHT22;10589;53.636;10.012;2022-10-17T03:49:50;12.60;99.90
20858;DHT22;10589;53.636;10.012;2022-10-17T03:52:17;12.50;99.90
20858;DHT22;10589;53.636;10.012;2022-10-17T03:54:43;12.50;99.90
20858;DHT22;10589;53.636;10.012;2022-10-17T03:57:09;12.40;99.90
20858;DHT22;10589;53.636;10.012;2022-10-17T03:59:34;12.40;99.90
20858;DHT22;10589;53.636;10.012;2022-10-17T04:02:00;12.30;99.90
20858;DHT22;10589;53.636;10.012;2022-10-17T04:04:25;12.30;99.90
20858;DHT22;10589;53.636;10.012;2022-10-17T04:06:51;12.30;99.90
20858;DHT22;10589;53.636;10.012;2022-10-17T04:09:16;12.30;99.90
20858;DHT22;10589;53.636;10.012;2022-10-17T04:11:42;12.30;99.90
20858;DHT22;10589;53.636;10.012;2022-10-17T04:14:08;12.30;99.90
20858;DHT22;10589;53.636;10.012;2022-10-17T04:16:34;12.30;99.90
20858;DHT22;10589;53.636;10.012;2022-10-17T04:19:00;12.30;99.90
20858;DHT22;10589;53.636;10.012;2022-10-17T04:21:26;12.30;99.90
20858;DHT22;10589;53.636;10.012;2022-10-17T04:23:56;12.30;99.90
20858;DHT22;10589;53.636;10.012;2022-10-17T04:26:22;12.30;99.90
20858;DHT22;10589;53.636;10.012;2022-10-17T04:28:49;12.20;99.90
20858;DHT22;10589;53.636;10.012;2022-10-17T04:31:15;12.20;99.90
20858;DHT22;10589;53.636;10.012;2022-10-17T04:33:41;12.20;99.90
20858;DHT22;10589;53.636;10.012;2022-10-17T04:36:12;12.20;99.90
20858;DHT22;10589;53.636;10.012;2022-10-17T04:38:38;12.20;99.90
20858;DHT22;10589;53.636;10.012;2022-10-17T04:41:06;12.20;99.90
20858;DHT22;10589;53.636;10.012;2022-10-17T04:43:34;12.20;99.90
20858;DHT22;10589;53.636;10.012;2022-10-17T04:46:02;12.20;99.90
20858;DHT22;10589;53.636;10.012;2022-10-17T04:48:29;12.20;99.90
20858;DHT22;10589;53.636;10.012;2022-10-17T04:50:58;12.20;99.90
20858;DHT22;10589;53.636;10.012;2022-10-17T04:53:25;12.20;99.90
20858;DHT22;10589;53.636;10.012;2022-10-17T04:55:51;12.10;99.90
20858;DHT22;10589;53.636;10.012;2022-10-17T04:58:17;12.10;99.90
20858;DHT22;10589;53.636;10.012;2022-10-17T05:00:44;12.10;99.90
20858;DHT22;10589;53.636;10.012;2022-10-17T05:03:10;12.00;99.90
20858;DHT22;10589;53.636;10.012;2022-10-17T05:05:39;12.00;99.90
20858;DHT22;10589;53.636;10.012;2022-10-17T05:08:06;11.90;99.90
20858;DHT22;10589;53.636;10.012;2022-10-17T05:10:36;11.90;99.90
20858;DHT22;10589;53.636;10.012;2022-10-17T05:13:02;11.80;99.90
20858;DHT22;10589;53.636;10.012;2022-10-17T05:15:28;11.80;99.90
20858;DHT22;10589;53.636;10.012;2022-10-17T05:17:55;11.70;99.90
20858;DHT22;10589;53.636;10.012;2022-10-17T05:20:20;11.70;99.90
20858;DHT22;10589;53.636;10.012;2022-10-17T05:22:46;11.70;99.90
20858;DHT22;10589;53.636;10.012;2022-10-17T05:25:12;11.70;99.90
20858;DHT22;10589;53.636;10.012;2022-10-17T05:27:37;11.60;99.90
20858;DHT22;10589;53.636;10.012;2022-10-17T05:30:03;11.60;99.90
20858;DHT22;10589;53.636;10.012;2022-10-17T05:32:29;11.60;99.90
20858;DHT22;10589;53.636;10.012;2022-10-17T05:34:55;11.50;99.90
20858;DHT22;10589;53.636;10.012;2022-10-17T05:37:20;11.50;99.90
20858;DHT22;10589;53.636;10.012;2022-10-17T05:39:46;11.40;99.90
20858;DHT22;10589;53.636;10.012;2022-10-17T05:42:12;11.40;99.90
20858;DHT22;10589;53.636;10.012;2022-10-17T05:44:37;11.40;99.90
20858;DHT22;10589;53.636;10.012;2022-10-17T05:47:04;11.30;99.90
20858;DHT22;10589;53.636;10.012;2022-10-17T05:49:29;11.30;99.90
20858;DHT22;10589;53.636;10.012;2022-10-17T05:51:55;11.30;99.90
20858;DHT22;10589;53.636;10.012;2022-10-17T05:54:20;11.20;99.90
20858;DHT22;10589;53.636;10.012;2022-10-17T05:56:51;11.20;99.90
20858;DHT22;10589;53.636;10.012;2022-10-17T05:59:16;11.20;99.90
20858;DHT22;10589;53.636;10.012;2022-10-17T06:01:42;11.30;99.90
20858;DHT22;10589;53.636;10.012;2022-10-17T06:04:07;11.20;99.90
20858;DHT22;10589;53.636;10.012;2022-10-17T06:06:36;11.20;99.90
20858;DHT22;10589;53.636;10.012;2022-10-17T06:09:02;11.20;99.90
20858;DHT22;10589;53.636;10.012;2022-10-17T06:11:28;11.20;99.90
20858;DHT22;10589;53.636;10.012;2022-10-17T06:13:53;11.20;99.90
20858;DHT22;10589;53.636;10.012;2022-10-17T06:16:19;11.40;99.90
20858;DHT22;10589;53.636;10.012;2022-10-17T06:18:44;11.30;99.90
20858;DHT22;10589;53.636;10.012;2022-10-17T06:21:11;11.40;99.90
20858;DHT22;10589;53.636;10.012;2022-10-17T06:23:39;11.40;99.90
20858;DHT22;10589;53.636;10.012;2022-10-17T06:26:05;11.40;99.90
20858;DHT22;10589;53.636;10.012;2022-10-17T06:28:32;11.50;99.90
20858;DHT22;10589;53.636;10.012;2022-10-17T06:30:58;11.50;99.90
20858;DHT22;10589;53.636;10.012;2022-10-17T06:33:23;11.60;99.90
20858;DHT22;10589;53.636;10.012;2022-10-17T06:35:53;11.70;99.90
20858;DHT22;10589;53.636;10.012;2022-10-17T06:38:19;11.70;99.90
20858;DHT22;10589;53.636;10.012;2022-10-17T06:40:45;11.70;99.90
20858;DHT22;10589;53.636;10.012;2022-10-17T06:43:10;11.80;99.90
20858;DHT22;10589;53.636;10.012;2022-10-17T06:45:38;11.90;99.90
20858;DHT22;10589;53.636;10.012;2022-10-17T06:48:04;12.00;99.90
20858;DHT22;10589;53.636;10.012;2022-10-17T06:50:30;12.00;99.90
20858;DHT22;10589;53.636;10.012;2022-10-17T06:52:55;12.10;99.90
20858;DHT22;10589;53.636;10.012;2022-10-17T06:55:21;12.10;99.90
20858;DHT22;10589;53.636;10.012;2022-10-17T06:57:47;12.20;99.90
20858;DHT22;10589;53.636;10.012;2022-10-17T07:00:13;12.30;99.90
20858;DHT22;10589;53.636;10.012;2022-10-17T07:02:38;12.30;99.90
20858;DHT22;10589;53.636;10.012;2022-10-17T07:05:04;12.50;99.90
20858;DHT22;10589;53.636;10.012;2022-10-17T07:07:30;12.50;99.90
20858;DHT22;10589;53.636;10.012;2022-10-17T07:09:57;12.70;99.90
20858;DHT22;10589;53.636;10.012;2022-10-17T07:12:22;12.70;99.90
20858;DHT22;10589;53.636;10.012;2022-10-17T07:14:49;12.80;99.90
20858;DHT22;10589;53.636;10.012;2022-10-17T07:17:15;12.90;99.90
20858;DHT22;10589;53.636;10.012;2022-10-17T07:19:41;13.00;99.90
20858;DHT22;10589;53.636;10.012;2022-10-17T07:22:08;13.00;99.90
20858;DHT22;10589;53.636;10.012;2022-10-17T07:24:33;13.10;99.90
20858;DHT22;10589;53.636;10.012;2022-10-17T07:27:00;13.30;99.90
20858;DHT22;10589;53.636;10.012;2022-10-17T07:29:25;13.40;99.90
20858;DHT22;10589;53.636;10.012;2022-10-17T07:31:51;13.50;99.90
20858;DHT22;10589;53.636;10.012;2022-10-17T07:34:17;13.70;99.90
20858;DHT22;10589;53.636;10.012;2022-10-17T07:36:43;13.90;99.90
20858;DHT22;10589;53.636;10.012;2022-10-17T07:39:09;14.00;99.90
20858;DHT22;10589;53.636;10.012;2022-10-17T07:41:34;14.10;99.90
20858;DHT22;10589;53.636;10.012;2022-10-17T07:44:00;14.20;99.90
20858;DHT22;10589;53.636;10.012;2022-10-17T07:46:26;14.40;99.90
20858;DHT22;10589;53.636;10.012;2022-10-17T07:48:51;14.40;99.90
20858;DHT22;10589;53.636;10.012;2022-10-17T07:51:17;14.50;99.90
20858;DHT22;10589;53.636;10.012;2022-10-17T07:53:44;14.50;99.90
20858;DHT22;10589;53.636;10.012;2022-10-17T07:56:10;14.50;99.90
20858;DHT22;10589;53.636;10.012;2022-10-17T07:58:36;14.60;99.90
20858;DHT22;10589;53.636;10.012;2022-10-17T08:01:10;14.70;99.90
20858;DHT22;10589;53.636;10.012;2022-10-17T08:03:39;14.90;99.90
20858;DHT22;10589;53.636;10.012;2022-10-17T08:06:05;15.10;99.90
20858;DHT22;10589;53.636;10.012;2022-10-17T08:08:30;15.40;99.90
20858;DHT22;10589;53.636;10.012;2022-10-17T08:11:02;15.50;99.90
20858;DHT22;10589;53.636;10.012;2022-10-17T08:13:28;15.80;99.90
20858;DHT22;10589;53.636;10.012;2022-10-17T08:15:58;15.80;99.90
20858;DHT22;10589;53.636;10.012;2022-10-17T08:18:24;15.90;99.90
20858;DHT22;10589;53.636;10.012;2022-10-17T08:20:49;16.00;99.90
20858;DHT22;10589;53.636;10.012;2022-10-17T08:23:15;16.20;99.90
20858;DHT22;10589;53.636;10.012;2022-10-17T08:25:40;16.20;99.90
20858;DHT22;10589;53.636;10.012;2022-10-17T08:28:06;16.30;99.90
20858;DHT22;10589;53.636;10.012;2022-10-17T08:30:32;16.40;99.90
20858;DHT22;10589;53.636;10.012;2022-10-17T08:32:57;16.40;99.90
20858;DHT22;10589;53.636;10.012;2022-10-17T08:35:23;16.40;99.90
20858;DHT22;10589;53.636;10.012;2022-10-17T08:37:49;16.60;99.90
20858;DHT22;10589;53.636;10.012;2022-10-17T08:40:23;16.70;99.90
20858;DHT22;10589;53.636;10.012;2022-10-17T08:43:15;16.80;99.90
20858;DHT22;10589;53.636;10.012;2022-10-17T08:46:03;16.90;99.90
20858;DHT22;10589;53.636;10.012;2022-10-17T08:48:33;16.90;99.90
20858;DHT22;10589;53.636;10.012;2022-10-17T08:51:14;16.90;99.90
20858;DHT22;10589;53.636;10.012;2022-10-17T08:58:42;17.00;99.90
20858;DHT22;10589;53.636;10.012;2022-10-17T09:01:35;17.10;99.90
20858;DHT22;10589;53.636;10.012;2022-10-17T09:07:18;17.40;99.90
20858;DHT22;10589;53.636;10.012;2022-10-17T09:13:06;17.50;99.90
20858;DHT22;10589;53.636;10.012;2022-10-17T09:18:45;17.50;99.90
20858;DHT22;10589;53.636;10.012;2022-10-17T09:21:20;17.60;99.90
20858;DHT22;10589;53.636;10.012;2022-10-17T09:23:58;17.60;99.90
20858;DHT22;10589;53.636;10.012;2022-10-17T09:26:25;17.70;99.90
20858;DHT22;10589;53.636;10.012;2022-10-17T09:28:53;17.90;99.90
20858;DHT22;10589;53.636;10.012;2022-10-17T09:31:25;18.00;99.90
20858;DHT22;10589;53.636;10.012;2022-10-17T09:33:58;18.00;99.90
20858;DHT22;10589;53.636;10.012;2022-10-17T09:36:33;18.00;99.90
20858;DHT22;10589;53.636;10.012;2022-10-17T09:39:02;18.00;99.90
20858;DHT22;10589;53.636;10.012;2022-10-17T09:41:55;18.00;99.90
20858;DHT22;10589;53.636;10.012;2022-10-17T09:47:14;18.10;99.90
20858;DHT22;10589;53.636;10.012;2022-10-17T09:49:45;18.30;99.90
20858;DHT22;10589;53.636;10.012;2022-10-17T09:52:15;18.30;99.90
20858;DHT22;10589;53.636;10.012;2022-10-17T09:54:56;18.50;99.90
20858;DHT22;10589;53.636;10.012;2022-10-17T09:57:23;18.70;99.90
20858;DHT22;10589;53.636;10.012;2022-10-17T10:00:03;18.90;99.90
20858;DHT22;10589;53.636;10.012;2022-10-17T10:02:30;19.00;99.90
20858;DHT22;10589;53.636;10.012;2022-10-17T10:05:17;19.20;99.90
20858;DHT22;10589;53.636;10.012;2022-10-17T10:07:59;19.40;99.90
20858;DHT22;10589;53.636;10.012;2022-10-17T10:10:27;19.60;99.90
20858;DHT22;10589;53.636;10.012;2022-10-17T10:13:22;19.60;99.90
20858;DHT22;10589;53.636;10.012;2022-10-17T10:15:50;19.60;99.90
20858;DHT22;10589;53.636;10.012;2022-10-17T10:18:35;19.60;99.90
20858;DHT22;10589;53.636;10.012;2022-10-17T10:23:36;19.70;99.90
20858;DHT22;10589;53.636;10.012;2022-10-17T10:26:30;19.70;99.90
20858;DHT22;10589;53.636;10.012;2022-10-17T10:29:16;19.80;99.90
20858;DHT22;10589;53.636;10.012;2022-10-17T10:31:43;19.80;99.90
20858;DHT22;10589;53.636;10.012;2022-10-17T10:34:21;19.90;99.90
20858;DHT22;10589;53.636;10.012;2022-10-17T10:36:59;19.90;99.90
20858;DHT22;10589;53.636;10.012;2022-10-17T10:41:56;20.00;99.90
20858;DHT22;10589;53.636;10.012;2022-10-17T10:44:26;20.20;99.90
20858;DHT22;10589;53.636;10.012;2022-10-17T10:47:22;20.30;99.90
20858;DHT22;10589;53.636;10.012;2022-10-17T10:49:50;20.50;99.90
20858;DHT22;10589;53.636;10.012;2022-10-17T10:52:38;20.50;99.90
20858;DHT22;10589;53.636;10.012;2022-10-17T10:57:41;20.50;99.90
20858;DHT22;10589;53.636;10.012;2022-10-17T11:02:50;20.50;99.90
20858;DHT22;10589;53.636;10.012;2022-10-17T11:08:01;20.40;99.90
20858;DHT22;10589;53.636;10.012;2022-10-17T11:10:47;20.30;99.90
20858;DHT22;10589;53.636;10.012;2022-10-17T11:13:20;20.30;99.90
20858;DHT22;10589;53.636;10.012;2022-10-17T11:15:59;20.20;99.90
20858;DHT22;10589;53.636;10.012;2022-10-17T11:21:15;20.10;99.90
20858;DHT22;10589;53.636;10.012;2022-10-17T11:23:47;20.10;99.90
20858;DHT22;10589;53.636;10.012;2022-10-17T11:26:20;20.10;99.90
20858;DHT22;10589;53.636;10.012;2022-10-17T11:28:54;20.10;99.90
20858;DHT22;10589;53.636;10.012;2022-10-17T11:31:23;20.10;99.90
20858;DHT22;10589;53.636;10.012;2022-10-17T11:36:31;20.20;99.90
20858;DHT22;10589;53.636;10.012;2022-10-17T11:39:04;20.40;99.90
20858;DHT22;10589;53.636;10.012;2022-10-17T11:41:51;20.50;99.90
20858;DHT22;10589;53.636;10.012;2022-10-17T11:44:38;20.60;99.90
20858;DHT22;10589;53.636;10.012;2022-10-17T11:50:21;20.60;99.90
20858;DHT22;10589;53.636;10.012;2022-10-17T11:53:00;20.60;99.90
20858;DHT22;10589;53.636;10.012;2022-10-17T11:55:28;20.70;99.90
20858;DHT22;10589;53.636;10.012;2022-10-17T12:06:47;20.30;99.90
20858;DHT22;10589;53.636;10.012;2022-10-17T12:11:57;20.00;99.90
20858;DHT22;10589;53.636;10.012;2022-10-17T12:17:01;19.40;99.90
20858;DHT22;10589;53.636;10.012;2022-10-17T12:19:32;18.80;99.90
20858;DHT22;10589;53.636;10.012;2022-10-17T12:24:41;18.10;99.90
20858;DHT22;10589;53.636;10.012;2022-10-17T12:27:29;18.00;99.90
20858;DHT22;10589;53.636;10.012;2022-10-17T12:30:02;17.80;99.90
20858;DHT22;10589;53.636;10.012;2022-10-17T12:32:29;17.70;99.90
20858;DHT22;10589;53.636;10.012;2022-10-17T12:34:56;17.60;99.90
20858;DHT22;10589;53.636;10.012;2022-10-17T12:45:58;17.40;99.90
20858;DHT22;10589;53.636;10.012;2022-10-17T12:51:18;17.50;99.90
20858;DHT22;10589;53.636;10.012;2022-10-17T12:54:00;17.50;99.90
20858;DHT22;10589;53.636;10.012;2022-10-17T12:56:46;17.50;99.90
20858;DHT22;10589;53.636;10.012;2022-10-17T12:59:14;17.50;99.90
20858;DHT22;10589;53.636;10.012;2022-10-17T13:01:44;17.40;99.90
20858;DHT22;10589;53.636;10.012;2022-10-17T13:04:10;17.40;99.90
20858;DHT22;10589;53.636;10.012;2022-10-17T13:06:47;17.40;99.90
20858;DHT22;10589;53.636;10.012;2022-10-17T13:11:49;17.40;99.90
20858;DHT22;10589;53.636;10.012;2022-10-17T13:14:18;17.40;99.90
20858;DHT22;10589;53.636;10.012;2022-10-17T13:16:52;17.30;99.90
20858;DHT22;10589;53.636;10.012;2022-10-17T13:19:22;17.40;99.90
20858;DHT22;10589;53.636;10.012;2022-10-17T13:21:52;17.40;99.90
20858;DHT22;10589;53.636;10.012;2022-10-17T13:26:46;17.30;99.90
20858;DHT22;10589;53.636;10.012;2022-10-17T13:29:14;17.20;99.90
20858;DHT22;10589;53.636;10.012;2022-10-17T13:31:41;17.10;99.90
20858;DHT22;10589;53.636;10.012;2022-10-17T13:34:16;17.20;99.90
20858;DHT22;10589;53.636;10.012;2022-10-17T13:36:45;17.10;99.90
20858;DHT22;10589;53.636;10.012;2022-10-17T13:39:14;17.10;99.90
20858;DHT22;10589;53.636;10.012;2022-10-17T13:41:41;17.10;99.90
20858;DHT22;10589;53.636;10.012;2022-10-17T13:44:16;17.10;99.90
20858;DHT22;10589;53.636;10.012;2022-10-17T13:46:42;17.00;99.90
20858;DHT22;10589;53.636;10.012;2022-10-17T13:51:51;17.00;99.90
20858;DHT22;10589;53.636;10.012;2022-10-17T13:57:02;17.00;99.90
20858;DHT22;10589;53.636;10.012;2022-10-17T13:59:39;16.90;99.90
20858;DHT22;10589;53.636;10.012;2022-10-17T14:02:15;16.90;99.90
20858;DHT22;10589;53.636;10.012;2022-10-17T14:04:41;16.90;99.90
20858;DHT22;10589;53.636;10.012;2022-10-17T14:07:20;16.90;99.90
20858;DHT22;10589;53.636;10.012;2022-10-17T14:09:48;16.90;99.90
20858;DHT22;10589;53.636;10.012;2022-10-17T14:12:13;16.90;99.90
20858;DHT22;10589;53.636;10.012;2022-10-17T14:14:46;16.80;99.90
20858;DHT22;10589;53.636;10.012;2022-10-17T14:17:26;16.80;99.90
20858;DHT22;10589;53.636;10.012;2022-10-17T14:19:59;16.90;99.90
20858;DHT22;10589;53.636;10.012;2022-10-17T14:22:29;16.90;99.90
20858;DHT22;10589;53.636;10.012;2022-10-17T14:24:57;16.90;99.90
20858;DHT22;10589;53.636;10.012;2022-10-17T14:27:59;16.90;99.90
20858;DHT22;10589;53.636;10.012;2022-10-17T14:30:32;16.90;99.90
20858;DHT22;10589;53.636;10.012;2022-10-17T14:33:01;16.90;99.90
20858;DHT22;10589;53.636;10.012;2022-10-17T14:35:28;16.90;99.90
20858;DHT22;10589;53.636;10.012;2022-10-17T14:38:02;16.90;99.90
20858;DHT22;10589;53.636;10.012;2022-10-17T14:40:29;16.90;99.90
20858;DHT22;10589;53.636;10.012;2022-10-17T14:42:59;17.10;99.90
20858;DHT22;10589;53.636;10.012;2022-10-17T14:45:29;16.90;99.90
20858;DHT22;10589;53.636;10.012;2022-10-17T14:48:06;17.10;99.90
20858;DHT22;10589;53.636;10.012;2022-10-17T14:50:34;17.00;99.90
20858;DHT22;10589;53.636;10.012;2022-10-17T14:53:27;17.00;99.90
20858;DHT22;10589;53.636;10.012;2022-10-17T14:55:58;17.00;99.90
20858;DHT22;10589;53.636;10.012;2022-10-17T14:58:26;17.00;99.90
20858;DHT22;10589;53.636;10.012;2022-10-17T15:00:53;17.00;99.90
20858;DHT22;10589;53.636;10.012;2022-10-17T15:03:19;17.00;99.90
20858;DHT22;10589;53.636;10.012;2022-10-17T15:05:46;17.00;99.90
20858;DHT22;10589;53.636;10.012;2022-10-17T15:08:13;17.00;99.90
20858;DHT22;10589;53.636;10.012;2022-10-17T15:10:39;17.00;99.90
20858;DHT22;10589;53.636;10.012;2022-10-17T15:13:09;17.00;99.90
20858;DHT22;10589;53.636;10.012;2022-10-17T15:15:36;17.00;99.90
20858;DHT22;10589;53.636;10.012;2022-10-17T15:18:02;17.00;99.90
20858;DHT22;10589;53.636;10.012;2022-10-17T15:20:28;17.00;99.90
20858;DHT22;10589;53.636;10.012;2022-10-17T15:22:56;17.00;99.90
20858;DHT22;10589;53.636;10.012;2022-10-17T15:25:22;17.00;99.90
20858;DHT22;10589;53.636;10.012;2022-10-17T15:27:48;17.00;99.90
20858;DHT22;10589;53.636;10.012;2022-10-17T15:30:29;17.00;99.90
20858;DHT22;10589;53.636;10.012;2022-10-17T15:32:57;16.90;99.90
20858;DHT22;10589;53.636;10.012;2022-10-17T15:35:23;16.90;99.90
20858;DHT22;10589;53.636;10.012;2022-10-17T15:37:49;16.90;99.90
20858;DHT22;10589;53.636;10.012;2022-10-17T15:40:20;16.90;99.90
20858;DHT22;10589;53.636;10.012;2022-10-17T15:42:47;16.90;99.90
20858;DHT22;10589;53.636;10.012;2022-10-17T15:45:14;16.90;99.90
20858;DHT22;10589;53.636;10.012;2022-10-17T15:47:41;16.90;99.90
20858;DHT22;10589;53.636;10.012;2022-10-17T15:50:12;16.90;99.90
20858;DHT22;10589;53.636;10.012;2022-10-17T15:52:38;16.90;99.90
20858;DHT22;10589;53.636;10.012;2022-10-17T15:55:04;16.90;99.90
20858;DHT22;10589;53.636;10.012;2022-10-17T15:57:34;16.90;99.90
20858;DHT22;10589;53.636;10.012;2022-10-17T16:00:00;16.90;99.90
20858;DHT22;10589;53.636;10.012;2022-10-17T16:02:26;16.90;99.90
20858;DHT22;10589;53.636;10.012;2022-10-17T16:04:52;16.90;99.90
20858;DHT22;10589;53.636;10.012;2022-10-17T16:07:18;16.90;99.90
20858;DHT22;10589;53.636;10.012;2022-10-17T16:09:45;16.90;99.90
20858;DHT22;10589;53.636;10.012;2022-10-17T16:12:15;16.90;99.90
20858;DHT22;10589;53.636;10.012;2022-10-17T16:14:41;16.80;99.90
20858;DHT22;10589;53.636;10.012;2022-10-17T16:17:14;16.80;99.90
20858;DHT22;10589;53.636;10.012;2022-10-17T16:19:41;16.80;99.90
20858;DHT22;10589;53.636;10.012;2022-10-17T16:22:23;16.80;99.90
20858;DHT22;10589;53.636;10.012;2022-10-17T16:24:50;16.80;99.90
20858;DHT22;10589;53.636;10.012;2022-10-17T16:27:22;16.80;99.90
20858;DHT22;10589;53.636;10.012;2022-10-17T16:29:48;16.70;99.90
20858;DHT22;10589;53.636;10.012;2022-10-17T16:32:13;16.70;99.90
20858;DHT22;10589;53.636;10.012;2022-10-17T16:34:39;16.70;99.90
20858;DHT22;10589;53.636;10.012;2022-10-17T16:37:04;16.70;99.90
20858;DHT22;10589;53.636;10.012;2022-10-17T16:39:30;16.70;99.90
20858;DHT22;10589;53.636;10.012;2022-10-17T16:41:55;16.60;99.90
20858;DHT22;10589;53.636;10.012;2022-10-17T16:44:21;16.70;99.90
20858;DHT22;10589;53.636;10.012;2022-10-17T16:46:46;16.70;99.90
20858;DHT22;10589;53.636;10.012;2022-10-17T16:49:12;16.60;99.90
20858;DHT22;10589;53.636;10.012;2022-10-17T16:51:40;16.60;99.90
20858;DHT22;10589;53.636;10.012;2022-10-17T16:54:07;16.60;99.90
20858;DHT22;10589;53.636;10.012;2022-10-17T16:56:33;16.60;99.90
20858;DHT22;10589;53.636;10.012;2022-10-17T16:58:59;16.60;99.90
20858;DHT22;10589;53.636;10.012;2022-10-17T17:01:25;16.60;99.90
20858;DHT22;10589;53.636;10.012;2022-10-17T17:03:54;16.60;99.90
20858;DHT22;10589;53.636;10.012;2022-10-17T17:06:25;16.60;99.90
20858;DHT22;10589;53.636;10.012;2022-10-17T17:08:52;16.60;99.90
20858;DHT22;10589;53.636;10.012;2022-10-17T17:11:19;16.60;99.90
20858;DHT22;10589;53.636;10.012;2022-10-17T17:13:45;16.50;99.90
20858;DHT22;10589;53.636;10.012;2022-10-17T17:16:19;16.60;99.90
20858;DHT22;10589;53.636;10.012;2022-10-17T17:18:52;16.60;99.90
20858;DHT22;10589;53.636;10.012;2022-10-17T17:21:18;16.60;99.90
20858;DHT22;10589;53.636;10.012;2022-10-17T17:23:44;16.50;99.90
20858;DHT22;10589;53.636;10.012;2022-10-17T17:26:21;16.50;99.90
20858;DHT22;10589;53.636;10.012;2022-10-17T17:28:47;16.50;99.90
20858;DHT22;10589;53.636;10.012;2022-10-17T17:31:15;16.50;99.90
20858;DHT22;10589;53.636;10.012;2022-10-17T17:33:42;16.50;99.90
20858;DHT22;10589;53.636;10.012;2022-10-17T17:36:09;16.50;99.90
20858;DHT22;10589;53.636;10.012;2022-10-17T17:38:36;16.50;99.90
20858;DHT22;10589;53.636;10.012;2022-10-17T17:41:03;16.50;99.90
20858;DHT22;10589;53.636;10.012;2022-10-17T17:43:29;16.50;99.90
20858;DHT22;10589;53.636;10.012;2022-10-17T17:45:54;16.50;99.90
20858;DHT22;10589;53.636;10.012;2022-10-17T17:48:20;16.40;99.90
20858;DHT22;10589;53.636;10.012;2022-10-17T17:50:46;16.40;99.90
20858;DHT22;10589;53.636;10.012;2022-10-17T17:53:14;16.50;99.90
20858;DHT22;10589;53.636;10.012;2022-10-17T17:55:40;16.40;99.90
20858;DHT22;10589;53.636;10.012;2022-10-17T17:58:05;16.50;99.90
20858;DHT22;10589;53.636;10.012;2022-10-17T18:00:33;16.50;99.90
20858;DHT22;10589;53.636;10.012;2022-10-17T18:03:00;16.40;99.90
20858;DHT22;10589;53.636;10.012;2022-10-17T18:05:26;16.30;99.90
20858;DHT22;10589;53.636;10.012;2022-10-17T18:07:52;16.30;99.90
20858;DHT22;10589;53.636;10.012;2022-10-17T18:10:18;16.30;99.90
20858;DHT22;10589;53.636;10.012;2022-10-17T18:12:43;16.40;99.90
20858;DHT22;10589;53.636;10.012;2022-10-17T18:15:10;16.40;99.90
20858;DHT22;10589;53.636;10.012;2022-10-17T18:17:35;16.40;99.90
20858;DHT22;10589;53.636;10.012;2022-10-17T18:20:02;16.40;99.90
20858;DHT22;10589;53.636;10.012;2022-10-17T18:22:28;16.30;99.90
20858;DHT22;10589;53.636;10.012;2022-10-17T18:24:54;16.20;99.90
20858;DHT22;10589;53.636;10.012;2022-10-17T18:27:19;16.20;99.90
20858;DHT22;10589;53.636;10.012;2022-10-17T18:29:45;16.20;99.90
20858;DHT22;10589;53.636;10.012;2022-10-17T18:32:11;16.30;99.90
20858;DHT22;10589;53.636;10.012;2022-10-17T18:34:37;16.30;99.90
20858;DHT22;10589;53.636;10.012;2022-10-17T18:37:03;16.30;99.90
20858;DHT22;10589;53.636;10.012;2022-10-17T18:39:29;16.30;99.90
20858;DHT22;10589;53.636;10.012;2022-10-17T18:41:54;16.40;99.90
20858;DHT22;10589;53.636;10.012;2022-10-17T18:44:20;16.40;99.90
20858;DHT22;10589;53.636;10.012;2022-10-17T18:46:46;16.40;99.90
20858;DHT22;10589;53.636;10.012;2022-10-17T18:49:14;16.30;99.90
20858;DHT22;10589;53.636;10.012;2022-10-17T18:51:40;16.40;99.90
20858;DHT22;10589;53.636;10.012;2022-10-17T18:54:28;16.40;99.90
20858;DHT22;10589;53.636;10.012;2022-10-17T18:56:56;16.40;99.90
20858;DHT22;10589;53.636;10.012;2022-10-17T18:59:22;16.40;99.90
20858;DHT22;10589;53.636;10.012;2022-10-17T19:01:47;16.40;99.90
20858;DHT22;10589;53.636;10.012;2022-10-17T19:04:13;16.20;99.90
20858;DHT22;10589;53.636;10.012;2022-10-17T19:06:39;16.20;99.90
20858;DHT22;10589;53.636;10.012;2022-10-17T19:09:08;16.10;99.90
20858;DHT22;10589;53.636;10.012;2022-10-17T19:11:35;16.00;99.90
20858;DHT22;10589;53.636;10.012;2022-10-17T19:14:03;16.00;99.90
20858;DHT22;10589;53.636;10.012;2022-10-17T19:16:31;15.90;99.90
20858;DHT22;10589;53.636;10.012;2022-10-17T19:19:15;15.90;99.90
20858;DHT22;10589;53.636;10.012;2022-10-17T19:21:42;15.80;99.90
20858;DHT22;10589;53.636;10.012;2022-10-17T19:24:12;15.80;99.90
20858;DHT22;10589;53.636;10.012;2022-10-17T19:26:38;15.70;99.90
20858;DHT22;10589;53.636;10.012;2022-10-17T19:29:05;15.70;99.90
20858;DHT22;10589;53.636;10.012;2022-10-17T19:31:31;15.70;99.90
20858;DHT22;10589;53.636;10.012;2022-10-17T19:33:58;15.70;99.90
20858;DHT22;10589;53.636;10.012;2022-10-17T19:36:26;15.60;99.90
20858;DHT22;10589;53.636;10.012;2022-10-17T19:38:53;15.60;99.90
20858;DHT22;10589;53.636;10.012;2022-10-17T19:41:18;15.60;99.90
20858;DHT22;10589;53.636;10.012;2022-10-17T19:43:45;15.50;99.90
20858;DHT22;10589;53.636;10.012;2022-10-17T19:46:14;15.40;99.90
20858;DHT22;10589;53.636;10.012;2022-10-17T19:48:40;15.40;99.90
20858;DHT22;10589;53.636;10.012;2022-10-17T19:51:09;15.40;99.90
20858;DHT22;10589;53.636;10.012;2022-10-17T19:53:35;15.30;99.90
20858;DHT22;10589;53.636;10.012;2022-10-17T19:56:01;15.20;99.90
20858;DHT22;10589;53.636;10.012;2022-10-17T19:58:27;15.20;99.90
20858;DHT22;10589;53.636;10.012;2022-10-17T20:00:56;15.10;99.90
20858;DHT22;10589;53.636;10.012;2022-10-17T20:03:25;15.00;99.90
20858;DHT22;10589;53.636;10.012;2022-10-17T20:05:51;15.00;99.90
20858;DHT22;10589;53.636;10.012;2022-10-17T20:08:18;14.90;99.90
20858;DHT22;10589;53.636;10.012;2022-10-17T20:10:43;14.90;99.90
20858;DHT22;10589;53.636;10.012;2022-10-17T20:13:10;14.80;99.90
20858;DHT22;10589;53.636;10.012;2022-10-17T20:15:36;14.80;99.90
20858;DHT22;10589;53.636;10.012;2022-10-17T20:18:02;14.80;99.90
20858;DHT22;10589;53.636;10.012;2022-10-17T20:20:28;14.70;99.90
20858;DHT22;10589;53.636;10.012;2022-10-17T20:22:54;14.70;99.90
20858;DHT22;10589;53.636;10.012;2022-10-17T20:25:19;14.60;99.90
20858;DHT22;10589;53.636;10.012;2022-10-17T20:27:45;14.50;99.90
20858;DHT22;10589;53.636;10.012;2022-10-17T20:30:11;14.50;99.90